Time;durP1;ratioP1;P1;durP2;ratioP2;P2;SDS_P1;SDS_P2;PMS_P1;PMS_P2;Temp;Humidity;BMP_temperature;BMP_pressure;BME280_temperature;BME280_humidity;BME280_pressure;Samples;Min_cycle;Max_cycle;Signal;HPM_P1;HPM_P2
2021/11/14 00:00:23;;;;;;;42.45;26.92;;;9.50;98.50;;;;;;5072506;28;20110;-63
2021/11/14 00:02:49;;;;;;;43.42;26.73;;;9.50;98.50;;;;;;5072009;28;20052;-63
2021/11/14 00:05:15;;;;;;;42.60;28.95;;;9.60;98.50;;;;;;5069227;28;20039;-64
2021/11/14 00:07:41;;;;;;;49.03;30.60;;;9.50;98.50;;;;;;5071169;28;20068;-64
2021/11/14 00:10:06;;;;;;;57.25;34.40;;;9.60;98.40;;;;;;5054777;28;20071;-64
2021/11/14 00:12:32;;;;;;;53.40;33.15;;;9.60;98.30;;;;;;5053448;28;20029;-63
2021/11/14 00:14:58;;;;;;;48.90;32.22;;;9.50;98.30;;;;;;5071017;28;20029;-63
2021/11/14 00:17:23;;;;;;;49.60;31.13;;;9.60;98.30;;;;;;5063494;28;20485;-63
2021/11/14 00:19:49;;;;;;;46.40;28.92;;;9.60;98.40;;;;;;5070155;28;20031;-63
2021/11/14 00:22:14;;;;;;;46.50;30.23;;;9.60;98.40;;;;;;5069969;28;20115;-63
2021/11/14 00:24:40;;;;;;;48.85;30.08;;;9.60;98.40;;;;;;5063638;28;20028;-63
2021/11/14 00:27:05;;;;;;;44.67;27.83;;;9.60;98.40;;;;;;5052806;28;20028;-63
2021/11/14 00:29:31;;;;;;;45.05;28.88;;;9.70;98.40;;;;;;5070915;28;20040;-63
2021/11/14 00:31:57;;;;;;;44.63;29.58;;;9.70;98.40;;;;;;5066014;28;20028;-64
2021/11/14 00:34:22;;;;;;;40.47;26.63;;;9.70;98.30;;;;;;5056975;28;20025;-63
2021/11/14 00:36:51;;;;;;;42.13;26.30;;;9.70;98.30;;;;;;5053080;28;20036;-63
2021/11/14 00:39:17;;;;;;;39.80;25.05;;;9.70;98.30;;;;;;5053153;28;20037;-64
2021/11/14 00:41:44;;;;;;;45.03;29.77;;;9.70;98.30;;;;;;5052925;28;20029;-63
2021/11/14 00:44:10;;;;;;;42.60;28.08;;;9.70;98.30;;;;;;5052168;28;20043;-63
2021/11/14 00:46:36;;;;;;;39.15;26.92;;;9.70;98.30;;;;;;5072168;28;20036;-63
2021/11/14 00:49:02;;;;;;;42.28;28.70;;;9.70;98.20;;;;;;5063417;28;20032;-63
2021/11/14 00:51:29;;;;;;;46.20;30.10;;;9.70;98.30;;;;;;5052250;28;20040;-64
2021/11/14 00:53:56;;;;;;;44.42;27.88;;;9.70;98.30;;;;;;5054479;28;20420;-63
2021/11/14 00:56:22;;;;;;;45.22;28.30;;;9.70;98.30;;;;;;5055478;28;20099;-63
2021/11/14 00:58:48;;;;;;;44.10;27.85;;;9.70;98.30;;;;;;5052265;28;20078;-63
2021/11/14 01:01:14;;;;;;;41.08;26.75;;;9.70;98.30;;;;;;5052831;28;20436;-63
2021/11/14 01:03:39;;;;;;;41.50;27.58;;;9.70;98.30;;;;;;5054724;28;20033;-64
2021/11/14 01:06:05;;;;;;;43.60;27.38;;;9.70;98.20;;;;;;5060567;28;20180;-63
2021/11/14 01:08:30;;;;;;;44.08;29.83;;;9.70;98.20;;;;;;5059231;28;20036;-63
2021/11/14 01:10:58;;;;;;;37.88;27.33;;;9.70;98.20;;;;;;5052276;28;20138;-63
2021/11/14 01:13:23;;;;;;;41.28;26.33;;;9.70;98.20;;;;;;5051376;28;20028;-63
2021/11/14 01:15:51;;;;;;;42.63;27.85;;;9.70;98.30;;;;;;5051894;28;20385;-63
2021/11/14 01:18:18;;;;;;;40.03;26.75;;;9.70;98.20;;;;;;5043121;28;20049;-64
2021/11/14 01:20:46;;;;;;;41.67;27.60;;;9.70;98.20;;;;;;5057150;28;20477;-63
2021/11/14 01:23:13;;;;;;;39.10;26.80;;;9.70;98.30;;;;;;5052873;28;20044;-63
2021/11/14 01:25:39;;;;;;;43.40;28.02;;;9.70;98.30;;;;;;5052081;28;20035;-64
2021/11/14 01:28:05;;;;;;;40.05;28.45;;;9.80;98.30;;;;;;5065931;28;20072;-64
2021/11/14 01:30:34;;;;;;;43.83;29.90;;;9.70;98.20;;;;;;5051868;28;20428;-63
2021/11/14 01:33:01;;;;;;;42.97;28.50;;;9.70;98.20;;;;;;5070422;28;20026;-63
2021/11/14 01:35:28;;;;;;;41.60;27.95;;;9.70;98.20;;;;;;5051806;28;20051;-63
2021/11/14 01:37:54;;;;;;;44.45;28.25;;;9.70;98.20;;;;;;5065534;28;20435;-63
2021/11/14 01:40:26;;;;;;;39.67;26.83;;;9.80;98.20;;;;;;5051719;28;20033;-63
2021/11/14 01:42:53;;;;;;;41.67;26.83;;;9.70;98.30;;;;;;5065243;28;20102;-63
2021/11/14 01:45:20;;;;;;;35.15;25.73;;;9.80;98.30;;;;;;5070660;28;20039;-64
2021/11/14 01:47:46;;;;;;;37.10;25.73;;;9.80;98.30;;;;;;5069696;28;20115;-63
2021/11/14 01:50:13;;;;;;;42.50;26.73;;;9.80;98.20;;;;;;5055830;28;20057;-63
2021/11/14 01:52:40;;;;;;;36.80;24.92;;;9.90;98.20;;;;;;5051484;28;20078;-64
2021/11/14 01:55:09;;;;;;;40.20;27.33;;;9.90;98.20;;;;;;5052605;28;20102;-64
2021/11/14 01:57:36;;;;;;;39.67;27.20;;;9.90;98.10;;;;;;5053681;28;20051;-64
2021/11/14 02:00:07;;;;;;;42.55;27.80;;;9.90;98.20;;;;;;5066923;28;20032;-64
2021/11/14 02:02:34;;;;;;;38.00;26.30;;;9.90;98.10;;;;;;5066489;28;20079;-64
2021/11/14 02:05:00;;;;;;;49.22;32.92;;;9.90;98.10;;;;;;5050976;28;20520;-64
2021/11/14 02:07:26;;;;;;;52.80;33.38;;;9.80;98.10;;;;;;5052440;28;20075;-64
2021/11/14 02:09:51;;;;;;;49.80;31.42;;;9.80;98.20;;;;;;5070183;28;20024;-64
2021/11/14 02:12:18;;;;;;;46.88;30.70;;;9.80;98.10;;;;;;5054252;28;20500;-63
2021/11/14 02:14:43;;;;;;;46.13;29.38;;;9.90;98.20;;;;;;5056706;28;20061;-63
2021/11/14 02:17:09;;;;;;;41.28;25.80;;;9.90;98.20;;;;;;5065982;28;20155;-63
2021/11/14 02:19:34;;;;;;;38.80;25.25;;;9.90;98.10;;;;;;5056820;28;20029;-63
2021/11/14 02:22:00;;;;;;;36.45;23.67;;;9.90;98.10;;;;;;5091565;28;20028;-63
2021/11/14 02:24:26;;;;;;;34.47;23.20;;;9.90;98.10;;;;;;5063086;28;20036;-63
2021/11/14 02:26:51;;;;;;;33.20;23.58;;;9.90;98.10;;;;;;5051274;28;20485;-63
2021/11/14 02:29:17;;;;;;;34.78;22.83;;;10.00;98.10;;;;;;5062977;28;20039;-63
2021/11/14 02:31:43;;;;;;;39.40;24.27;;;10.00;98.20;;;;;;5072797;28;20039;-64
2021/11/14 02:34:10;;;;;;;35.03;22.77;;;10.00;98.10;;;;;;5060878;28;20063;-64
2021/11/14 02:36:36;;;;;;;39.80;23.65;;;10.00;98.10;;;;;;5060408;28;20084;-64
2021/11/14 02:39:02;;;;;;;32.30;23.30;;;10.00;98.20;;;;;;5071831;28;20047;-64
2021/11/14 02:41:28;;;;;;;31.50;21.52;;;10.00;98.10;;;;;;5073650;28;20032;-64
2021/11/14 02:43:54;;;;;;;32.45;21.95;;;10.00;98.10;;;;;;5068659;28;20027;-64
2021/11/14 02:46:20;;;;;;;38.38;21.58;;;10.00;98.10;;;;;;5067798;28;20023;-64
2021/11/14 02:48:47;;;;;;;28.10;19.55;;;10.00;98.10;;;;;;5056215;28;20025;-64
2021/11/14 02:51:25;;;;;;;33.60;21.27;;;10.00;98.00;;;;;;5071347;28;20029;-64
2021/11/14 02:53:51;;;;;;;26.65;18.45;;;10.00;98.00;;;;;;5066436;28;20408;-64
2021/11/14 02:56:17;;;;;;;30.17;19.15;;;10.00;98.20;;;;;;5054739;28;20131;-63
2021/11/14 02:58:43;;;;;;;26.30;17.40;;;9.90;97.90;;;;;;5059021;28;20120;-64
2021/11/14 03:01:14;;;;;;;28.55;18.13;;;9.90;98.00;;;;;;5062169;28;20021;-64
2021/11/14 03:03:40;;;;;;;26.02;17.98;;;9.90;98.00;;;;;;5054438;28;20082;-63
2021/11/14 03:06:08;;;;;;;28.30;18.35;;;9.90;98.00;;;;;;5072239;28;20534;-64
2021/11/14 03:08:34;;;;;;;31.15;19.33;;;9.90;97.90;;;;;;5074010;28;20058;-64
2021/11/14 03:11:01;;;;;;;33.30;21.85;;;9.90;97.90;;;;;;5072658;28;20024;-63
2021/11/14 03:13:26;;;;;;;32.42;22.92;;;9.80;97.90;;;;;;5074001;28;20074;-64
2021/11/14 03:15:58;;;;;;;38.42;23.38;;;9.90;97.90;;;;;;5069630;28;20028;-64
2021/11/14 03:18:24;;;;;;;37.15;22.45;;;9.80;97.90;;;;;;5054304;28;20363;-64
2021/11/14 03:20:52;;;;;;;33.50;20.95;;;9.80;97.90;;;;;;5069057;28;20440;-63
2021/11/14 03:23:21;;;;;;;27.83;19.23;;;9.80;97.90;;;;;;5064147;28;20120;-64
2021/11/14 03:25:47;;;;;;;28.48;20.67;;;9.80;97.90;;;;;;5054820;28;20032;-63
2021/11/14 03:28:13;;;;;;;31.45;20.67;;;9.80;97.90;;;;;;5054184;28;20029;-63
2021/11/14 03:30:38;;;;;;;30.52;20.40;;;9.80;98.00;;;;;;5066019;28;20401;-63
2021/11/14 03:33:08;;;;;;;31.25;20.92;;;9.80;97.90;;;;;;5060334;28;20020;-63
2021/11/14 03:35:50;;;;;;;31.98;20.20;;;9.80;97.90;;;;;;5071678;28;20074;-64
2021/11/14 03:38:22;;;;;;;29.10;20.58;;;9.80;97.90;;;;;;5065698;28;20072;-64
2021/11/14 03:40:48;;;;;;;28.08;18.92;;;9.80;97.90;;;;;;5054358;28;20036;-64
2021/11/14 03:43:14;;;;;;;30.75;19.92;;;9.80;97.90;;;;;;5069717;28;20020;-64
2021/11/14 03:45:41;;;;;;;31.67;20.98;;;9.80;97.90;;;;;;5067529;28;20103;-64
2021/11/14 03:48:08;;;;;;;32.55;21.50;;;9.70;97.90;;;;;;5072751;28;20131;-64
2021/11/14 03:50:34;;;;;;;32.72;20.40;;;9.70;97.90;;;;;;5072401;28;20036;-64
2021/11/14 03:53:00;;;;;;;32.88;21.88;;;9.70;97.90;;;;;;5071737;28;20546;-64
2021/11/14 03:55:25;;;;;;;33.60;21.60;;;9.70;98.00;;;;;;5054283;28;20060;-64
2021/11/14 03:57:51;;;;;;;32.38;21.35;;;9.70;98.00;;;;;;5059402;28;20032;-64
2021/11/14 04:00:22;;;;;;;36.15;23.63;;;9.70;98.00;;;;;;5055400;28;20025;-64
2021/11/14 04:02:50;;;;;;;29.42;19.08;;;9.70;98.00;;;;;;5053661;28;20033;-64
2021/11/14 04:05:16;;;;;;;31.00;20.63;;;9.70;97.90;;;;;;5054020;28;20036;-64
2021/11/14 04:07:42;;;;;;;33.75;20.55;;;9.70;97.90;;;;;;5053765;28;20033;-64
2021/11/14 04:10:08;;;;;;;29.13;20.45;;;9.70;98.00;;;;;;5053375;28;20370;-64
2021/11/14 04:12:33;;;;;;;27.60;20.08;;;9.70;98.00;;;;;;5059782;28;20116;-64
2021/11/14 04:14:59;;;;;;;28.98;19.98;;;9.70;98.00;;;;;;5064509;28;20036;-64
2021/11/14 04:17:24;;;;;;;28.40;19.83;;;9.80;98.00;;;;;;5053299;28;20489;-64
2021/11/14 04:19:50;;;;;;;27.27;19.38;;;9.70;98.00;;;;;;5054486;28;20075;-64
2021/11/14 04:22:15;;;;;;;29.70;19.95;;;9.70;98.00;;;;;;5067695;28;20090;-64
2021/11/14 04:24:42;;;;;;;31.17;20.75;;;9.80;98.00;;;;;;5065228;28;20472;-64
2021/11/14 04:27:07;;;;;;;29.65;19.00;;;9.80;98.00;;;;;;5065386;28;20039;-64
2021/11/14 04:29:33;;;;;;;32.58;21.98;;;9.70;98.00;;;;;;5067739;28;20100;-65
2021/11/14 04:31:58;;;;;;;30.10;19.92;;;9.70;98.00;;;;;;5064179;28;20032;-65
2021/11/14 04:34:24;;;;;;;29.70;20.17;;;9.70;98.00;;;;;;5063416;28;20021;-64
2021/11/14 04:36:49;;;;;;;32.03;18.95;;;9.80;98.00;;;;;;5052276;28;20490;-64
2021/11/14 04:39:15;;;;;;;27.13;18.30;;;9.70;98.00;;;;;;5056418;28;20469;-64
2021/11/14 04:41:40;;;;;;;29.73;20.67;;;9.70;98.00;;;;;;5071330;28;20086;-64
2021/11/14 04:44:06;;;;;;;28.70;20.00;;;9.80;98.00;;;;;;5068330;28;20040;-65
2021/11/14 04:46:31;;;;;;;26.05;18.15;;;9.80;98.00;;;;;;5064822;28;20573;-65
2021/11/14 04:48:57;;;;;;;29.90;20.23;;;9.80;97.90;;;;;;5055526;28;20126;-64
2021/11/14 04:51:22;;;;;;;28.63;19.23;;;9.70;97.90;;;;;;5056148;28;20629;-65
2021/11/14 04:53:48;;;;;;;28.38;19.27;;;9.70;98.20;;;;;;5070519;28;20121;-64
2021/11/14 04:56:13;;;;;;;28.38;18.52;;;9.70;98.00;;;;;;5060735;28;20053;-64
2021/11/14 04:58:40;;;;;;;26.17;17.27;;;9.70;98.00;;;;;;5072705;28;20028;-64
2021/11/14 05:01:06;;;;;;;28.25;18.30;;;9.70;97.90;;;;;;5057023;28;20025;-64
2021/11/14 05:03:31;;;;;;;27.10;17.83;;;9.70;98.00;;;;;;5071569;28;20051;-65
2021/11/14 05:05:57;;;;;;;28.08;17.73;;;9.70;98.00;;;;;;5066664;28;20473;-65
2021/11/14 05:08:24;;;;;;;26.13;18.42;;;9.70;97.90;;;;;;5072128;28;20473;-64
2021/11/14 05:10:50;;;;;;;27.20;18.92;;;9.80;98.00;;;;;;5056011;28;20070;-64
2021/11/14 05:13:17;;;;;;;27.80;17.73;;;9.70;97.90;;;;;;5052082;28;20041;-64
2021/11/14 05:15:43;;;;;;;28.65;18.42;;;9.70;97.90;;;;;;5065559;28;20020;-64
2021/11/14 05:18:09;;;;;;;26.48;16.80;;;9.80;98.00;;;;;;5060964;28;20043;-64
2021/11/14 05:20:36;;;;;;;27.00;17.50;;;9.80;98.00;;;;;;5056190;28;20021;-65
2021/11/14 05:23:02;;;;;;;33.33;17.52;;;9.80;97.90;;;;;;5071782;28;20032;-65
2021/11/14 05:25:28;;;;;;;27.27;17.42;;;9.70;97.80;;;;;;5062435;28;20048;-65
2021/11/14 05:27:53;;;;;;;29.25;18.23;;;9.70;97.80;;;;;;5071658;28;20083;-65
2021/11/14 05:30:19;;;;;;;28.30;17.60;;;9.70;97.80;;;;;;5069132;28;20021;-65
2021/11/14 05:32:45;;;;;;;29.35;17.17;;;9.70;97.80;;;;;;5054623;28;20043;-65
2021/11/14 05:35:10;;;;;;;27.02;16.15;;;9.70;97.80;;;;;;5058867;28;20325;-65
2021/11/14 05:37:36;;;;;;;26.08;16.13;;;9.60;97.70;;;;;;5050374;28;20036;-65
2021/11/14 05:40:03;;;;;;;26.17;17.20;;;9.60;97.70;;;;;;5055917;28;20104;-65
2021/11/14 05:42:29;;;;;;;24.17;15.80;;;9.60;97.70;;;;;;5070644;28;20109;-65
2021/11/14 05:44:54;;;;;;;25.67;16.13;;;9.50;97.70;;;;;;5069161;28;20402;-64
2021/11/14 05:47:20;;;;;;;27.48;16.73;;;9.60;97.70;;;;;;5070417;28;20123;-64
2021/11/14 05:49:46;;;;;;;27.20;16.17;;;9.60;97.80;;;;;;5056153;28;20372;-64
2021/11/14 05:52:11;;;;;;;26.45;17.83;;;9.50;97.80;;;;;;5071422;28;20036;-65
2021/11/14 05:54:37;;;;;;;25.15;16.30;;;9.60;97.80;;;;;;5063889;28;20171;-64
2021/11/14 05:57:02;;;;;;;25.88;16.45;;;9.50;97.80;;;;;;5051032;28;20118;-64
2021/11/14 05:59:36;;;;;;;26.90;16.77;;;9.50;97.80;;;;;;5056222;28;20469;-64
2021/11/14 06:02:08;;;;;;;26.90;16.88;;;9.60;97.90;;;;;;5071768;28;20032;-65
2021/11/14 06:07:18;;;;;;;30.05;15.73;;;9.40;97.80;;;;;;5050947;28;20031;-64
2021/11/14 06:09:43;;;;;;;27.52;17.60;;;9.40;97.80;;;;;;5056128;28;20415;-64
2021/11/14 06:12:09;;;;;;;25.73;16.30;;;9.30;97.80;;;;;;5064579;28;20489;-64
2021/11/14 06:14:34;;;;;;;27.00;16.33;;;9.30;97.80;;;;;;5057433;28;20035;-65
2021/11/14 06:17:00;;;;;;;25.77;16.38;;;9.30;97.90;;;;;;5053987;28;20142;-64
2021/11/14 06:19:26;;;;;;;29.25;17.17;;;9.30;97.90;;;;;;5051444;28;20025;-65
2021/11/14 06:21:52;;;;;;;27.80;16.88;;;9.30;97.90;;;;;;5051283;28;20044;-64
2021/11/14 06:24:18;;;;;;;28.75;16.15;;;9.20;97.90;;;;;;5062534;28;20017;-65
2021/11/14 06:26:44;;;;;;;29.45;16.15;;;9.20;97.90;;;;;;5050166;28;20373;-65
2021/11/14 06:29:10;;;;;;;28.67;17.38;;;9.20;97.90;;;;;;5052978;28;20381;-65
2021/11/14 06:31:35;;;;;;;33.50;19.10;;;9.10;98.00;;;;;;5061305;28;20025;-65
2021/11/14 06:34:01;;;;;;;30.60;17.77;;;9.00;98.00;;;;;;5051161;28;20766;-65
2021/11/14 06:36:26;;;;;;;30.60;17.95;;;8.90;98.00;;;;;;5061569;28;20127;-65
2021/11/14 06:38:52;;;;;;;32.83;19.25;;;8.80;98.10;;;;;;5058117;28;20017;-64
2021/11/14 06:41:17;;;;;;;33.95;18.45;;;8.80;98.10;;;;;;5069250;28;20091;-65
2021/11/14 06:43:43;;;;;;;32.47;18.30;;;8.80;98.10;;;;;;5063542;28;20060;-65
2021/11/14 06:46:09;;;;;;;33.00;17.80;;;8.70;98.10;;;;;;5052081;28;20033;-65
2021/11/14 06:48:35;;;;;;;32.63;18.17;;;8.70;98.10;;;;;;5054152;28;20024;-65
2021/11/14 06:51:00;;;;;;;31.50;18.05;;;8.70;98.10;;;;;;5051498;28;20031;-65
2021/11/14 06:53:26;;;;;;;34.55;19.45;;;8.60;98.10;;;;;;5051041;28;20386;-65
2021/11/14 06:55:51;;;;;;;31.95;17.55;;;8.50;98.20;;;;;;5051097;28;20631;-65
2021/11/14 06:58:17;;;;;;;34.78;18.92;;;8.50;98.30;;;;;;5050645;28;20041;-65
2021/11/14 07:00:43;;;;;;;36.20;19.00;;;8.40;98.30;;;;;;5052747;28;20025;-65
2021/11/14 07:03:09;;;;;;;31.77;18.27;;;8.40;98.40;;;;;;5051724;28;20032;-65
2021/11/14 07:05:34;;;;;;;34.72;18.13;;;8.30;98.40;;;;;;5069759;28;20028;-65
2021/11/14 07:08:00;;;;;;;34.40;19.75;;;8.30;98.40;;;;;;5053468;28;20036;-65
2021/11/14 07:10:26;;;;;;;34.50;18.48;;;8.30;98.40;;;;;;5063472;28;20024;-65
2021/11/14 07:12:51;;;;;;;31.27;18.20;;;8.20;98.40;;;;;;5061317;28;20549;-65
2021/11/14 07:15:17;;;;;;;31.35;17.90;;;8.20;98.40;;;;;;5053484;28;20039;-65
2021/11/14 07:17:43;;;;;;;36.30;20.58;;;8.20;98.40;;;;;;5054096;28;20083;-65
2021/11/14 07:20:11;;;;;;;30.58;17.65;;;8.10;98.60;;;;;;5066637;28;20063;-65
2021/11/14 07:22:36;;;;;;;31.00;18.27;;;8.10;98.40;;;;;;5073759;28;20108;-65
2021/11/14 07:25:04;;;;;;;33.42;18.10;;;8.10;98.50;;;;;;5071994;28;20109;-64
2021/11/14 07:27:29;;;;;;;32.95;20.17;;;8.10;98.60;;;;;;5072592;28;20474;-64
2021/11/14 07:29:55;;;;;;;38.83;19.90;;;8.00;98.50;;;;;;5060469;28;20108;-64
2021/11/14 07:32:20;;;;;;;38.17;21.15;;;8.00;98.40;;;;;;5071690;28;20059;-63
2021/11/14 07:34:46;;;;;;;36.38;20.67;;;8.00;98.40;;;;;;5063960;28;20481;-63
2021/11/14 07:37:12;;;;;;;36.85;21.42;;;7.90;98.50;;;;;;5055068;28;20044;-65
2021/11/14 07:39:37;;;;;;;40.15;22.85;;;7.90;98.50;;;;;;5056574;28;20071;-65
2021/11/14 07:42:03;;;;;;;39.50;20.85;;;7.80;98.60;;;;;;5053272;28;20029;-65
2021/11/14 07:44:29;;;;;;;40.60;20.85;;;7.70;98.60;;;;;;5059817;28;20028;-64
2021/11/14 07:46:54;;;;;;;40.10;21.17;;;7.70;98.70;;;;;;5073050;28;20025;-65
2021/11/14 07:49:20;;;;;;;36.20;20.45;;;7.60;98.80;;;;;;5054062;28;20483;-65
2021/11/14 07:51:45;;;;;;;36.00;21.38;;;7.60;98.90;;;;;;5064894;28;20021;-65
2021/11/14 07:54:11;;;;;;;39.63;22.08;;;7.50;98.90;;;;;;5056784;28;20017;-64
2021/11/14 07:56:37;;;;;;;39.03;20.52;;;7.50;99.00;;;;;;5063079;28;20049;-65
2021/11/14 07:59:04;;;;;;;38.45;21.13;;;7.50;99.00;;;;;;5061495;28;20024;-65
2021/11/14 08:01:29;;;;;;;41.08;22.38;;;7.50;99.00;;;;;;5065324;28;20068;-65
2021/11/14 08:03:54;;;;;;;38.47;22.05;;;7.50;99.00;;;;;;5054383;28;20048;-65
2021/11/14 08:06:21;;;;;;;44.83;23.15;;;7.50;99.00;;;;;;5056061;28;20013;-65
2021/11/14 08:08:46;;;;;;;40.35;23.05;;;7.50;99.00;;;;;;5059562;28;20037;-65
2021/11/14 08:11:12;;;;;;;45.08;23.98;;;7.40;99.00;;;;;;5060793;28;20157;-65
2021/11/14 08:13:38;;;;;;;43.38;22.30;;;7.40;99.00;;;;;;5066496;28;20075;-65
2021/11/14 08:16:04;;;;;;;42.65;23.17;;;7.30;99.20;;;;;;5053491;28;20396;-65
2021/11/14 08:18:30;;;;;;;43.10;23.70;;;7.30;99.20;;;;;;5057193;28;20028;-64
2021/11/14 08:20:55;;;;;;;47.17;24.00;;;7.30;99.20;;;;;;5061065;28;20021;-64
2021/11/14 08:23:21;;;;;;;51.13;26.58;;;7.40;99.20;;;;;;5053506;28;20040;-65
2021/11/14 08:25:48;;;;;;;42.25;23.30;;;7.40;99.20;;;;;;5062723;28;20020;-64
2021/11/14 08:28:13;;;;;;;45.53;24.10;;;7.40;99.20;;;;;;5051091;28;20036;-65
2021/11/14 08:30:40;;;;;;;48.08;24.63;;;7.40;99.20;;;;;;5056177;28;20020;-65
2021/11/14 08:33:06;;;;;;;51.53;25.27;;;7.50;99.20;;;;;;5051532;28;20154;-64
2021/11/14 08:35:33;;;;;;;50.38;26.27;;;7.50;99.20;;;;;;5062500;28;20050;-64
2021/11/14 08:38:00;;;;;;;54.05;27.67;;;7.50;99.30;;;;;;5054034;28;20049;-64
2021/11/14 08:40:29;;;;;;;52.80;25.88;;;7.50;99.60;;;;;;5055367;28;20044;-65
2021/11/14 08:42:59;;;;;;;52.30;28.52;;;7.50;99.40;;;;;;5065401;28;20036;-65
2021/11/14 08:45:25;;;;;;;52.30;27.67;;;7.50;99.50;;;;;;5058671;28;20361;-65
2021/11/14 08:47:52;;;;;;;48.80;26.52;;;7.50;99.40;;;;;;5061650;28;20033;-66
2021/11/14 08:50:18;;;;;;;49.92;25.27;;;7.50;99.40;;;;;;5051518;28;20032;-65
2021/11/14 08:52:45;;;;;;;50.50;26.13;;;7.50;99.40;;;;;;5051195;28;20484;-65
2021/11/14 08:55:12;;;;;;;50.75;24.42;;;7.60;99.40;;;;;;5055699;28;20024;-65
2021/11/14 08:57:38;;;;;;;51.35;25.77;;;7.60;99.40;;;;;;5057216;28;20043;-65
2021/11/14 09:00:05;;;;;;;49.75;26.50;;;7.60;99.40;;;;;;5063016;28;20024;-66
2021/11/14 09:02:31;;;;;;;54.47;27.70;;;7.70;99.40;;;;;;5053683;28;20040;-65
2021/11/14 09:04:56;;;;;;;54.33;26.60;;;7.70;99.40;;;;;;5061081;28;20036;-65
2021/11/14 09:07:22;;;;;;;54.25;26.05;;;7.60;99.40;;;;;;5054984;28;20025;-65
2021/11/14 09:09:47;;;;;;;53.50;27.17;;;7.60;99.40;;;;;;5052250;28;20021;-65
2021/11/14 09:12:13;;;;;;;57.55;30.70;;;7.60;99.40;;;;;;5051624;28;20354;-65
2021/11/14 09:14:38;;;;;;;56.95;28.98;;;7.60;99.50;;;;;;5051928;28;20043;-65
2021/11/14 09:17:04;;;;;;;50.83;26.83;;;7.60;99.60;;;;;;5061924;28;20028;-65
2021/11/14 09:19:29;;;;;;;53.80;27.48;;;7.60;99.60;;;;;;5064088;28;20477;-65
2021/11/14 09:21:55;;;;;;;53.88;29.98;;;7.60;99.60;;;;;;5059859;28;20025;-65
2021/11/14 09:24:20;;;;;;;59.03;28.50;;;7.60;99.60;;;;;;5052031;28;20376;-64
2021/11/14 09:26:46;;;;;;;55.97;29.52;;;7.50;99.60;;;;;;5051615;28;20025;-63
2021/11/14 09:29:14;;;;;;;62.38;31.73;;;7.50;99.70;;;;;;5051389;28;20074;-63
2021/11/14 09:31:40;;;;;;;55.30;28.92;;;7.50;99.70;;;;;;5053366;28;20120;-63
2021/11/14 09:34:05;;;;;;;54.42;30.83;;;7.60;99.90;;;;;;5071583;28;20435;-63
2021/11/14 09:36:32;;;;;;;59.47;30.55;;;7.60;99.90;;;;;;5063641;28;20036;-63
2021/11/14 09:38:58;;;;;;;63.75;29.70;;;7.70;99.90;;;;;;5063957;28;20108;-63
2021/11/14 09:41:24;;;;;;;55.38;28.08;;;7.70;99.90;;;;;;5055300;28;20356;-63
2021/11/14 09:43:51;;;;;;;50.97;26.77;;;7.80;99.90;;;;;;5068214;28;20385;-63
2021/11/14 09:46:19;;;;;;;56.83;29.42;;;7.90;99.90;;;;;;5057731;28;20044;-64
2021/11/14 09:48:44;;;;;;;50.92;27.92;;;8.00;99.90;;;;;;5062705;28;20029;-63
2021/11/14 09:51:10;;;;;;;53.63;28.25;;;8.00;99.80;;;;;;5063779;28;20024;-64
2021/11/14 09:53:37;;;;;;;56.75;27.77;;;8.10;99.80;;;;;;5055232;28;20539;-64
2021/11/14 09:56:05;;;;;;;59.50;30.45;;;8.20;99.70;;;;;;5051851;28;20052;-63
2021/11/14 09:58:31;;;;;;;63.10;31.05;;;8.30;99.60;;;;;;5050629;28;20044;-64
2021/11/14 10:00:58;;;;;;;61.45;29.60;;;8.40;99.50;;;;;;5051230;28;20025;-63
2021/11/14 10:03:23;;;;;;;59.90;32.67;;;8.40;99.40;;;;;;5052704;28;20109;-63
2021/11/14 10:05:50;;;;;;;61.55;31.65;;;8.50;99.50;;;;;;5059796;28;20111;-63
2021/11/14 10:08:19;;;;;;;59.90;30.60;;;8.50;99.40;;;;;;5056238;28;20426;-63
2021/11/14 10:10:52;;;;;;;61.03;31.27;;;8.60;99.30;;;;;;5051270;28;20048;-62
2021/11/14 10:13:23;;;;;;;64.85;32.42;;;8.70;99.30;;;;;;5053433;28;20111;-64
2021/11/14 10:16:11;;;;;;;63.28;31.58;;;8.70;99.20;;;;;;5067150;28;20163;-63
2021/11/14 10:18:39;;;;;;;66.50;35.83;;;8.90;99.10;;;;;;5058601;28;20131;-63
2021/11/14 10:21:06;;;;;;;64.70;33.33;;;8.90;99.00;;;;;;5056064;28;20032;-63
2021/11/14 10:23:36;;;;;;;66.82;35.20;;;8.90;99.00;;;;;;5055625;28;20017;-63
2021/11/14 10:26:10;;;;;;;71.47;34.70;;;9.00;99.00;;;;;;5051086;28;20029;-63
2021/11/14 10:28:41;;;;;;;65.90;34.13;;;9.00;98.80;;;;;;5051074;28;20021;-63
2021/11/14 10:31:07;;;;;;;67.13;35.42;;;9.00;98.80;;;;;;5065120;28;20024;-64
2021/11/14 10:33:33;;;;;;;62.72;33.67;;;9.10;98.80;;;;;;5091186;28;20031;-63
2021/11/14 10:36:00;;;;;;;63.97;33.42;;;9.20;98.70;;;;;;5084673;28;20020;-63
2021/11/14 10:38:29;;;;;;;66.85;35.55;;;9.20;98.70;;;;;;5064123;28;20064;-63
2021/11/14 10:41:01;;;;;;;63.42;33.40;;;9.30;98.60;;;;;;5050822;28;20040;-63
2021/11/14 10:43:31;;;;;;;59.70;33.45;;;9.30;98.50;;;;;;5065140;28;20036;-63
2021/11/14 10:45:59;;;;;;;63.30;34.17;;;9.40;98.50;;;;;;5068086;28;20021;-65
2021/11/14 10:48:26;;;;;;;59.25;33.47;;;9.50;98.40;;;;;;5070467;28;20029;-63
2021/11/14 10:50:58;;;;;;;61.55;34.05;;;9.60;98.30;;;;;;5054153;28;20098;-63
2021/11/14 10:53:27;;;;;;;65.07;35.63;;;9.70;98.20;;;;;;5067244;28;20029;-63
2021/11/14 10:55:58;;;;;;;63.63;35.28;;;9.70;98.10;;;;;;5073345;28;20052;-64
2021/11/14 10:58:26;;;;;;;65.80;34.75;;;9.70;98.10;;;;;;5074904;28;20036;-63
2021/11/14 11:00:58;;;;;;;69.50;35.70;;;9.80;98.10;;;;;;5074333;28;20480;-63
2021/11/14 11:03:33;;;;;;;68.72;39.45;;;9.80;97.90;;;;;;5074825;28;20472;-63
2021/11/14 11:05:58;;;;;;;70.28;36.67;;;9.80;97.70;;;;;;5077954;28;20377;-64
2021/11/14 11:08:25;;;;;;;68.40;36.80;;;9.80;97.70;;;;;;5074395;28;20039;-63
2021/11/14 11:10:56;;;;;;;66.40;34.67;;;9.80;97.50;;;;;;5074055;28;20025;-63
2021/11/14 11:13:41;;;;;;;70.90;36.28;;;9.80;97.60;;;;;;5067391;28;20037;-64
2021/11/14 11:16:08;;;;;;;;;;;9.80;97.50;;;;;;5073068;28;20037;-63
2021/11/14 11:18:37;;;;;;;67.40;34.90;;;9.80;97.70;;;;;;5072126;28;20004;-64
2021/11/14 11:21:04;;;;;;;74.85;38.30;;;9.90;97.60;;;;;;5057593;28;20391;-63
2021/11/14 11:23:33;;;;;;;70.22;36.72;;;9.90;97.60;;;;;;5055828;28;20025;-63
2021/11/14 11:26:04;;;;;;;71.22;38.20;;;9.90;97.50;;;;;;5060219;28;20095;-63
2021/11/14 11:28:36;;;;;;;66.65;37.97;;;9.80;97.40;;;;;;5069554;28;20033;-64
2021/11/14 11:31:03;;;;;;;75.22;40.35;;;9.90;97.40;;;;;;5062545;28;20032;-62
2021/11/14 11:33:33;;;;;;;70.63;36.88;;;9.80;97.20;;;;;;5055016;28;20064;-64
2021/11/14 11:36:00;;;;;;;76.22;39.08;;;9.80;97.40;;;;;;5060465;28;20041;-64
2021/11/14 11:38:28;;;;;;;73.60;39.08;;;9.80;97.40;;;;;;5064029;28;20627;-64
2021/11/14 11:40:54;;;;;;;74.45;37.85;;;9.80;97.20;;;;;;5086083;28;20419;-64
2021/11/14 11:43:20;;;;;;;68.97;37.22;;;9.80;97.30;;;;;;5071214;28;20452;-64
2021/11/14 11:45:47;;;;;;;73.30;40.05;;;9.80;97.40;;;;;;5073947;28;20100;-64
2021/11/14 11:48:25;;;;;;;80.13;41.85;;;9.80;97.40;;;;;;5060514;28;20033;-64
2021/11/14 11:51:03;;;;;;;78.78;39.22;;;9.80;97.30;;;;;;5073842;28;20024;-64
2021/11/14 11:53:30;;;;;;;76.03;40.55;;;9.80;97.30;;;;;;5074139;28;20104;-64
2021/11/14 11:56:06;;;;;;;76.55;37.38;;;9.80;97.20;;;;;;5063778;28;20461;-64
2021/11/14 11:58:42;;;;;;;73.35;38.10;;;9.90;97.30;;;;;;5053578;28;20043;-64
2021/11/14 12:01:22;;;;;;;75.47;38.72;;;9.80;97.20;;;;;;5051189;28;20025;-65
2021/11/14 12:03:47;;;;;;;75.70;38.63;;;9.80;97.20;;;;;;5053960;28;20027;-64
2021/11/14 12:06:23;;;;;;;67.75;36.00;;;9.70;97.20;;;;;;5070519;28;20024;-63
2021/11/14 12:08:52;;;;;;;72.78;38.83;;;9.70;97.30;;;;;;5073645;28;20146;-63
2021/11/14 12:11:32;;;;;;;71.82;38.75;;;9.80;97.40;;;;;;5053566;28;20036;-65
2021/11/14 12:14:00;;;;;;;75.55;37.28;;;9.80;97.50;;;;;;5071724;28;20028;-63
2021/11/14 12:16:31;;;;;;;76.53;34.65;;;9.80;97.40;;;;;;5081073;28;20024;-64
2021/11/14 12:18:59;;;;;;;68.55;35.80;;;9.70;97.40;;;;;;5059391;28;20032;-64
2021/11/14 12:21:28;;;;;;;74.65;38.55;;;9.70;97.50;;;;;;5058912;28;20025;-63
2021/11/14 12:24:00;;;;;;;72.22;35.97;;;9.70;97.40;;;;;;5073031;28;20107;-64
2021/11/14 12:26:32;;;;;;;71.35;36.58;;;9.70;97.50;;;;;;5073194;28;20354;-64
2021/11/14 12:29:02;;;;;;;69.72;37.60;;;9.70;97.50;;;;;;5071375;28;20033;-64
2021/11/14 12:31:30;;;;;;;68.57;34.47;;;9.60;97.50;;;;;;5062979;28;20106;-64
2021/11/14 12:34:08;;;;;;;74.82;37.45;;;9.70;97.60;;;;;;5059961;28;20024;-64
2021/11/14 12:36:42;;;;;;;76.43;38.58;;;9.70;97.60;;;;;;5071500;28;20083;-63